Time;durP1;ratioP1;P1;durP2;ratioP2;P2;SDS_P1;SDS_P2;PMS_P1;PMS_P2;Temp;Humidity;BMP_temperature;BMP_pressure;BME280_temperature;BME280_humidity;BME280_pressure;Samples;Min_cycle;Max_cycle;Signal;HPM_P1;HPM_P2
2023/02/21 02:16:26;;;;;;;68.75;35.00;;;8.90;99.90;;;;;;4984727;28;20054;-85
2023/02/21 02:19:22;;;;;;;71.38;36.50;;;8.90;99.90;;;;;;4970648;28;20170;-82
2023/02/21 02:22:13;;;;;;;68.07;34.85;;;8.90;99.90;;;;;;4972490;28;20038;-82
2023/02/21 02:24:51;;;;;;;79.15;40.90;;;8.90;99.90;;;;;;4982588;28;20505;-83
2023/02/21 02:27:35;;;;;;;76.28;39.58;;;8.90;99.90;;;;;;4972244;28;20042;-84
2023/02/21 02:30:19;;;;;;;70.70;37.90;;;8.90;99.90;;;;;;4971802;28;20117;-82
2023/02/21 02:32:56;;;;;;;76.18;39.75;;;8.90;99.90;;;;;;4972444;28;20050;-84
2023/02/21 02:35:28;;;;;;;72.03;40.30;;;8.80;99.90;;;;;;4986288;28;20034;-81
2023/02/21 02:38:12;;;;;;;73.40;39.00;;;8.90;99.90;;;;;;4973802;28;20042;-84
2023/02/21 02:40:50;;;;;;;72.53;38.20;;;8.90;99.90;;;;;;4985387;28;20049;-83
2023/02/21 02:43:33;;;;;;;75.40;38.47;;;8.90;99.90;;;;;;4973034;28;20081;-83
2023/02/21 02:46:05;;;;;;;69.90;36.28;;;8.90;99.90;;;;;;4971890;28;20113;-84
2023/02/21 02:48:45;;;;;;;69.75;35.40;;;8.90;99.90;;;;;;4988062;28;20154;-82
2023/02/21 02:51:13;;;;;;;64.40;33.58;;;8.90;99.90;;;;;;4986803;28;20046;-83
2023/02/21 02:53:39;;;;;;;71.20;36.28;;;8.90;99.90;;;;;;4999888;28;20110;-84
2023/02/21 02:56:09;;;;;;;69.32;35.30;;;8.90;99.90;;;;;;4986181;28;20500;-83
2023/02/21 02:58:51;;;;;;;75.45;36.92;;;8.90;99.90;;;;;;4988111;28;20026;-82
2023/02/21 03:01:24;;;;;;;77.57;37.78;;;8.80;99.90;;;;;;4997964;28;20034;-85
2023/02/21 03:04:02;;;;;;;79.50;36.58;;;8.90;99.90;;;;;;4986731;28;20615;-82
2023/02/21 03:06:58;;;;;;;75.03;37.30;;;8.80;99.90;;;;;;4997842;28;20121;-83
2023/02/21 03:10:01;;;;;;;68.32;32.90;;;8.80;99.90;;;;;;4985654;28;20037;-82
2023/02/21 03:12:53;;;;;;;59.08;29.45;;;8.80;99.90;;;;;;4978863;28;20046;-83
2023/02/21 03:15:44;;;;;;;60.28;31.60;;;8.80;99.90;;;;;;4985929;28;20038;-84
2023/02/21 03:18:38;;;;;;;58.38;30.88;;;8.80;99.90;;;;;;4986725;28;20425;-81
2023/02/21 03:21:06;;;;;;;;;;;8.80;99.90;;;;;;4993712;28;20488;-84
2023/02/21 03:23:34;;;;;;;56.53;29.27;;;8.80;99.90;;;;;;4985908;28;19914;-82
2023/02/21 03:26:05;;;;;;;61.03;31.92;;;8.70;99.90;;;;;;4986201;28;20034;-84
2023/02/21 03:28:32;;;;;;;50.10;28.50;;;8.80;99.90;;;;;;4999521;28;20508;-82
2023/02/21 03:31:00;;;;;;;59.17;31.33;;;8.70;99.90;;;;;;4985458;28;20064;-84
2023/02/21 03:33:26;;;;;;;52.10;28.35;;;8.70;99.90;;;;;;4998768;28;20038;-85
2023/02/21 03:35:52;;;;;;;57.47;31.02;;;8.80;99.90;;;;;;4985574;28;20042;-80
2023/02/21 03:38:18;;;;;;;59.35;30.35;;;8.80;99.90;;;;;;4998555;28;20037;-83
2023/02/21 03:40:43;;;;;;;59.92;32.03;;;8.70;99.90;;;;;;4986052;28;20041;-83
2023/02/21 03:43:09;;;;;;;57.00;32.58;;;8.80;99.90;;;;;;4985746;28;20093;-82
2023/02/21 03:45:35;;;;;;;59.75;31.38;;;8.80;99.90;;;;;;4985637;28;20065;-85
2023/02/21 03:48:02;;;;;;;55.58;30.40;;;8.80;99.90;;;;;;4986186;28;20062;-85
2023/02/21 03:50:27;;;;;;;60.38;32.90;;;8.70;99.90;;;;;;4983913;28;20058;-83
2023/02/21 03:52:53;;;;;;;57.42;30.02;;;8.70;99.90;;;;;;4967991;28;20049;-84
2023/02/21 03:55:19;;;;;;;62.90;33.25;;;8.70;99.90;;;;;;4967634;28;20034;-84
2023/02/21 03:57:44;;;;;;;57.88;30.30;;;8.70;99.90;;;;;;4983906;28;20052;-84
2023/02/21 04:00:12;;;;;;;63.60;32.78;;;8.70;99.90;;;;;;4984150;28;20038;-85
2023/02/21 04:02:37;;;;;;;67.15;34.63;;;8.70;99.90;;;;;;4966398;28;20038;-84
2023/02/21 04:05:04;;;;;;;59.50;31.27;;;8.70;99.90;;;;;;4983937;28;20042;-83
2023/02/21 04:07:29;;;;;;;70.18;35.22;;;8.70;99.90;;;;;;4984604;28;20036;-85
2023/02/21 04:09:55;;;;;;;69.20;36.65;;;8.70;99.90;;;;;;4999761;28;20044;-83
2023/02/21 04:12:20;;;;;;;75.68;36.00;;;8.70;99.90;;;;;;4985957;28;22276;-84
2023/02/21 04:14:46;;;;;;;72.13;35.58;;;8.70;99.90;;;;;;4991701;28;20044;-85
2023/02/21 04:17:12;;;;;;;73.85;36.25;;;8.70;99.90;;;;;;5014600;28;20046;-82
2023/02/21 04:19:37;;;;;;;60.50;32.53;;;8.80;99.90;;;;;;4987446;28;20042;-80
2023/02/21 04:22:03;;;;;;;68.93;35.35;;;8.70;99.90;;;;;;4997147;28;20289;-81
2023/02/21 04:24:28;;;;;;;68.93;33.30;;;8.70;99.90;;;;;;5004100;28;20066;-82
2023/02/21 04:26:54;;;;;;;77.50;39.08;;;8.80;99.90;;;;;;4990516;28;20580;-84
2023/02/21 04:29:19;;;;;;;68.90;35.80;;;8.70;99.90;;;;;;4982899;28;20035;-85
2023/02/21 04:31:45;;;;;;;67.95;35.85;;;8.80;99.90;;;;;;4998940;28;20101;-84
2023/02/21 04:34:11;;;;;;;63.72;33.70;;;8.80;99.90;;;;;;4981725;28;20030;-83
2023/02/21 04:36:37;;;;;;;64.85;34.88;;;8.70;99.90;;;;;;4983082;28;20508;-84
2023/02/21 04:39:03;;;;;;;71.80;36.53;;;8.70;99.90;;;;;;4981851;28;20113;-84
2023/02/21 04:41:30;;;;;;;67.72;34.70;;;8.80;99.90;;;;;;4966418;28;20030;-80
2023/02/21 04:43:56;;;;;;;63.78;32.75;;;8.70;99.90;;;;;;4965098;28;20038;-84
2023/02/21 04:46:22;;;;;;;65.82;33.15;;;8.70;99.90;;;;;;4982763;28;20098;-81
2023/02/21 04:48:50;;;;;;;60.42;31.42;;;8.70;99.90;;;;;;4987445;28;20038;-83
2023/02/21 04:51:17;;;;;;;70.07;35.47;;;8.70;99.90;;;;;;4985911;28;20057;-82
2023/02/21 04:53:45;;;;;;;65.55;33.83;;;8.70;99.90;;;;;;4997482;28;20086;-83
2023/02/21 04:56:11;;;;;;;56.63;31.45;;;8.70;99.90;;;;;;4986316;28;20060;-84
2023/02/21 04:58:38;;;;;;;54.53;30.48;;;8.70;99.90;;;;;;4985831;28;20038;-85
2023/02/21 05:01:04;;;;;;;49.45;27.75;;;8.70;99.90;;;;;;4986213;28;20105;-84
2023/02/21 05:03:29;;;;;;;59.63;30.48;;;8.70;99.90;;;;;;4986152;28;20042;-83
2023/02/21 05:05:55;;;;;;;63.95;33.08;;;8.70;99.90;;;;;;4984860;28;20034;-83
2023/02/21 05:08:22;;;;;;;62.70;35.25;;;8.70;99.90;;;;;;4997880;28;20491;-82
2023/02/21 05:10:48;;;;;;;60.70;31.65;;;8.70;99.90;;;;;;4997594;28;20076;-86
2023/02/21 05:13:14;;;;;;;54.60;29.42;;;8.70;99.90;;;;;;4985754;28;20035;-84
2023/02/21 05:15:40;;;;;;;59.63;31.38;;;8.70;99.90;;;;;;4996167;28;20511;-84
2023/02/21 05:18:05;;;;;;;64.97;33.65;;;8.70;99.90;;;;;;4984465;28;20037;-83
2023/02/21 05:20:31;;;;;;;61.58;31.05;;;8.70;99.90;;;;;;4985188;28;20439;-82
2023/02/21 05:22:57;;;;;;;63.63;32.80;;;8.70;99.90;;;;;;4985351;28;20070;-82
2023/02/21 05:25:23;;;;;;;62.83;32.47;;;8.70;99.90;;;;;;4997402;28;20092;-83
2023/02/21 05:27:50;;;;;;;64.07;31.42;;;8.70;99.90;;;;;;4998647;28;20030;-84
2023/02/21 05:30:20;;;;;;;65.15;32.03;;;8.70;99.90;;;;;;5001018;28;20026;-82
2023/02/21 05:32:46;;;;;;;61.72;31.73;;;8.70;99.90;;;;;;4984528;28;20034;-84
2023/02/21 05:35:13;;;;;;;75.65;34.58;;;8.70;99.90;;;;;;4998507;28;20035;-81
2023/02/21 05:37:39;;;;;;;66.55;32.85;;;8.70;99.90;;;;;;5001136;28;20035;-82
2023/02/21 05:40:05;;;;;;;63.92;32.63;;;8.70;99.90;;;;;;5000425;28;20049;-82
2023/02/21 05:42:31;;;;;;;64.43;31.95;;;8.70;99.90;;;;;;4987934;28;20033;-83
2023/02/21 05:44:56;;;;;;;71.13;34.58;;;8.60;99.90;;;;;;4986810;28;20088;-82
2023/02/21 05:47:22;;;;;;;62.20;29.75;;;8.70;99.90;;;;;;4991854;28;20034;-84
2023/02/21 05:49:48;;;;;;;56.53;28.70;;;8.70;99.90;;;;;;5001502;28;20112;-84
2023/02/21 05:52:15;;;;;;;52.53;27.48;;;8.60;99.90;;;;;;4987168;28;20073;-84
2023/02/21 05:54:40;;;;;;;58.78;28.42;;;8.70;99.90;;;;;;4986526;28;20093;-84
2023/02/21 05:57:06;;;;;;;54.63;27.27;;;8.70;99.90;;;;;;4998250;28;20051;-81
2023/02/21 05:59:32;;;;;;;51.53;26.05;;;8.70;99.90;;;;;;4987101;28;20481;-83
2023/02/21 06:01:57;;;;;;;58.28;27.55;;;8.70;99.90;;;;;;4986453;28;20038;-86
2023/02/21 06:04:23;;;;;;;60.40;29.08;;;8.70;99.90;;;;;;4982620;28;20041;-83
2023/02/21 06:06:49;;;;;;;56.60;28.63;;;8.70;99.90;;;;;;4998877;28;20048;-84
2023/02/21 06:09:17;;;;;;;62.92;31.95;;;8.70;99.90;;;;;;4979067;28;20066;-83
2023/02/21 06:11:43;;;;;;;54.28;27.70;;;8.70;99.90;;;;;;4983489;28;20030;-81
2023/02/21 06:14:15;;;;;;;69.50;32.67;;;8.70;99.90;;;;;;4978160;28;20049;-81
2023/02/21 06:16:40;;;;;;;68.20;31.40;;;8.70;99.90;;;;;;4982833;28;20062;-83
2023/02/21 06:19:07;;;;;;;62.90;30.75;;;8.70;99.90;;;;;;4983644;28;20068;-82
2023/02/21 06:21:34;;;;;;;59.55;29.13;;;8.60;99.90;;;;;;4979261;28;20066;-84
2023/02/21 06:24:00;;;;;;;61.08;28.65;;;8.70;99.90;;;;;;4980043;28;20022;-82
2023/02/21 06:26:26;;;;;;;60.67;29.92;;;8.70;99.90;;;;;;4979897;28;20070;-82
2023/02/21 06:28:51;;;;;;;68.50;32.20;;;8.60;99.90;;;;;;4985676;28;20045;-83
2023/02/21 06:31:18;;;;;;;64.80;29.70;;;8.60;99.90;;;;;;4980289;28;20038;-84
2023/02/21 06:33:45;;;;;;;58.45;29.60;;;8.60;99.90;;;;;;4986590;28;20481;-85
2023/02/21 06:36:17;;;;;;;66.15;31.23;;;8.60;99.90;;;;;;4981197;28;20058;-83
2023/02/21 06:38:49;;;;;;;71.22;33.63;;;8.60;99.90;;;;;;4978801;28;20118;-83
2023/02/21 06:41:19;;;;;;;66.63;30.63;;;8.60;99.90;;;;;;4979611;28;20042;-84
2023/02/21 06:43:45;;;;;;;66.05;32.08;;;8.60;99.90;;;;;;4984850;28;20432;-82
2023/02/21 06:46:18;;;;;;;56.97;28.25;;;8.50;99.90;;;;;;4983990;28;20042;-85
2023/02/21 06:48:44;;;;;;;65.57;31.52;;;8.60;99.90;;;;;;4984939;28;20054;-84
2023/02/21 06:51:10;;;;;;;72.13;34.58;;;8.60;99.90;;;;;;4986329;28;20551;-82
2023/02/21 06:53:36;;;;;;;63.55;30.45;;;8.60;99.90;;;;;;4987560;28;20493;-82
2023/02/21 06:56:02;;;;;;;60.60;28.73;;;8.50;99.90;;;;;;4983304;28;20700;-81
2023/02/21 06:58:28;;;;;;;66.82;30.75;;;8.60;99.90;;;;;;4969822;28;20100;-85
2023/02/21 07:00:53;;;;;;;70.28;33.50;;;8.60;99.90;;;;;;4971377;28;20042;-84
2023/02/21 07:03:19;;;;;;;76.35;34.88;;;8.60;99.90;;;;;;4988048;28;20037;-82
2023/02/21 07:05:45;;;;;;;63.28;29.98;;;8.50;99.90;;;;;;4972630;28;20485;-84
2023/02/21 07:08:11;;;;;;;61.45;29.25;;;8.50;99.90;;;;;;4984849;28;20105;-84
2023/02/21 07:10:36;;;;;;;66.57;29.52;;;8.50;99.90;;;;;;4972457;28;20045;-84
2023/02/21 07:13:02;;;;;;;72.38;32.00;;;8.60;99.90;;;;;;4987940;28;20393;-84
2023/02/21 07:15:28;;;;;;;75.38;33.35;;;8.50;99.90;;;;;;4989376;28;20034;-80
2023/02/21 07:17:53;;;;;;;84.18;36.67;;;8.60;99.90;;;;;;4987421;28;20092;-84
2023/02/21 07:20:19;;;;;;;69.07;32.10;;;8.60;99.90;;;;;;4971286;28;20388;-83
2023/02/21 07:22:44;;;;;;;61.80;29.65;;;8.50;99.90;;;;;;4970572;28;20034;-84
2023/02/21 07:25:16;;;;;;;70.25;30.50;;;8.50;99.90;;;;;;4988204;28;20030;-82
2023/02/21 07:27:41;;;;;;;64.32;29.50;;;8.60;99.90;;;;;;4985505;28;20039;-84
2023/02/21 07:30:09;;;;;;;63.58;29.52;;;8.60;99.90;;;;;;4988171;28;20519;-84
2023/02/21 07:32:34;;;;;;;63.60;28.80;;;8.60;99.90;;;;;;5005523;28;20041;-82
2023/02/21 07:35:00;;;;;;;77.07;33.45;;;8.60;99.90;;;;;;4987721;28;20030;-82
2023/02/21 07:37:26;;;;;;;82.00;33.65;;;8.60;99.90;;;;;;4972079;28;20054;-82
2023/02/21 07:39:52;;;;;;;65.85;30.15;;;8.60;99.90;;;;;;4987342;28;20117;-81
2023/02/21 07:42:17;;;;;;;69.22;30.40;;;8.60;99.90;;;;;;4967650;28;20160;-81
2023/02/21 07:44:43;;;;;;;70.38;31.45;;;8.50;99.90;;;;;;4987103;28;20050;-85
2023/02/21 07:47:09;;;;;;;69.00;31.35;;;8.60;99.90;;;;;;4986430;28;20041;-82
2023/02/21 07:49:39;;;;;;;65.60;28.85;;;8.50;99.90;;;;;;4986278;28;20093;-82
2023/02/21 07:52:06;;;;;;;55.63;25.75;;;8.50;99.90;;;;;;4998889;28;20045;-82
2023/02/21 07:54:32;;;;;;;74.97;31.13;;;8.60;99.90;;;;;;4988485;28;20161;-82
2023/02/21 07:56:58;;;;;;;74.78;33.40;;;8.60;99.90;;;;;;4987121;28;20581;-84
2023/02/21 07:59:23;;;;;;;70.00;31.63;;;8.60;99.90;;;;;;4999832;28;20038;-82
2023/02/21 08:01:49;;;;;;;82.45;35.53;;;8.50;99.90;;;;;;4996956;28;20092;-81
2023/02/21 08:04:19;;;;;;;74.50;33.20;;;8.50;99.90;;;;;;4997505;28;20042;-82
2023/02/21 08:06:46;;;;;;;66.43;29.63;;;8.50;99.90;;;;;;4987145;28;20103;-79
2023/02/21 08:09:12;;;;;;;73.10;31.85;;;8.50;99.90;;;;;;4997699;28;20218;-82
2023/02/21 08:11:39;;;;;;;62.97;28.27;;;8.60;99.90;;;;;;4986617;28;20173;-80
2023/02/21 08:14:05;;;;;;;65.78;28.88;;;8.50;99.90;;;;;;4985365;28;20030;-80
2023/02/21 08:16:30;;;;;;;71.57;30.88;;;8.60;99.90;;;;;;5000957;28;20115;-82
2023/02/21 08:18:56;;;;;;;80.88;34.65;;;8.60;99.90;;;;;;5000751;28;20030;-83
2023/02/21 08:21:22;;;;;;;78.53;33.55;;;8.60;99.90;;;;;;4998999;28;20044;-82
2023/02/21 08:23:47;;;;;;;60.90;28.65;;;8.50;99.90;;;;;;5013100;28;20027;-81
2023/02/21 08:26:13;;;;;;;78.35;34.33;;;8.60;99.90;;;;;;5019114;28;20053;-80
2023/02/21 08:28:38;;;;;;;80.20;34.70;;;8.60;99.90;;;;;;5013076;28;20041;-81
2023/02/21 08:31:05;;;;;;;88.45;36.83;;;8.60;99.90;;;;;;4988280;28;20443;-82
2023/02/21 08:33:31;;;;;;;84.88;35.67;;;8.50;99.90;;;;;;5001842;28;20030;-81
2023/02/21 08:35:56;;;;;;;78.72;32.40;;;8.50;99.90;;;;;;4984551;28;20500;-81
2023/02/21 08:38:22;;;;;;;84.22;34.53;;;8.50;99.90;;;;;;4985596;28;20038;-83
2023/02/21 08:40:47;;;;;;;80.68;32.35;;;8.50;99.90;;;;;;4995925;28;20053;-84
2023/02/21 08:43:13;;;;;;;68.35;28.85;;;8.50;99.90;;;;;;4997423;28;20484;-81
2023/02/21 08:45:38;;;;;;;65.40;26.52;;;8.50;99.90;;;;;;4984962;28;20057;-80
2023/02/21 08:48:04;;;;;;;74.47;30.98;;;8.50;99.90;;;;;;4984197;28;20034;-81
2023/02/21 08:50:30;;;;;;;70.13;31.10;;;8.60;99.90;;;;;;4983709;28;20106;-83
2023/02/21 08:52:56;;;;;;;73.47;30.25;;;8.60;99.90;;;;;;4982151;28;20070;-82
2023/02/21 08:55:22;;;;;;;69.35;30.35;;;8.60;99.90;;;;;;4982823;28;20453;-82
2023/02/21 08:57:49;;;;;;;69.38;28.45;;;8.60;99.90;;;;;;4966206;28;20052;-83
2023/02/21 09:00:16;;;;;;;66.90;29.52;;;8.60;99.90;;;;;;4966643;28;20065;-83
2023/02/21 09:02:42;;;;;;;65.25;28.88;;;8.60;99.90;;;;;;4981570;28;20539;-82
2023/02/21 09:05:13;;;;;;;58.42;26.50;;;8.60;99.90;;;;;;4981818;28;20968;-81
2023/02/21 09:07:38;;;;;;;57.63;25.02;;;8.60;99.90;;;;;;4981975;28;20117;-80
2023/02/21 09:10:05;;;;;;;58.63;25.27;;;8.60;99.90;;;;;;4982353;28;20113;-84
2023/02/21 09:12:31;;;;;;;56.20;24.02;;;8.60;99.90;;;;;;4969179;28;20089;-85
2023/02/21 09:14:56;;;;;;;47.08;21.63;;;8.60;99.90;;;;;;4984335;28;20129;-82
2023/02/21 09:17:22;;;;;;;44.55;21.85;;;8.60;99.90;;;;;;4968560;28;20038;-84
2023/02/21 09:19:47;;;;;;;48.38;22.15;;;8.70;99.90;;;;;;4982192;28;20153;-85
2023/02/21 09:22:13;;;;;;;45.13;20.73;;;8.70;99.90;;;;;;4966784;28;20034;-82
2023/02/21 09:24:40;;;;;;;47.53;22.92;;;8.70;99.90;;;;;;4998090;28;20030;-84
2023/02/21 09:27:06;;;;;;;50.38;22.60;;;8.70;99.90;;;;;;4964979;28;20039;-80
2023/02/21 09:29:34;;;;;;;48.22;22.02;;;8.70;99.90;;;;;;4982265;28;20049;-83
2023/02/21 09:32:00;;;;;;;47.42;23.02;;;8.70;99.90;;;;;;4966972;28;20038;-85
2023/02/21 09:34:27;;;;;;;48.47;22.20;;;8.70;99.90;;;;;;4967345;28;20034;-83
2023/02/21 09:36:56;;;;;;;50.42;23.40;;;8.70;99.90;;;;;;4965865;28;20043;-82
2023/02/21 09:39:22;;;;;;;45.45;21.38;;;8.70;99.90;;;;;;4981877;28;20113;-82
2023/02/21 09:41:49;;;;;;;51.53;22.98;;;8.70;99.90;;;;;;4965302;28;20034;-81
2023/02/21 09:44:19;;;;;;;47.67;21.92;;;8.70;99.90;;;;;;4966105;28;20125;-82
2023/02/21 09:46:59;;;;;;;51.15;23.60;;;8.70;99.90;;;;;;4995916;28;20133;-83
2023/02/21 09:49:31;;;;;;;49.08;22.05;;;8.70;99.90;;;;;;5000335;28;20777;-82
2023/02/21 09:51:58;;;;;;;47.88;22.08;;;8.70;99.90;;;;;;4980002;28;22313;-82
2023/02/21 09:54:36;;;;;;;46.70;20.73;;;8.70;99.90;;;;;;4976650;28;20084;-82
2023/02/21 09:57:12;;;;;;;50.35;22.63;;;8.70;99.90;;;;;;4981768;28;20050;-82
2023/02/21 09:59:38;;;;;;;45.17;20.88;;;8.80;99.90;;;;;;4975570;28;20027;-81
2023/02/21 10:02:12;;;;;;;58.22;25.75;;;8.80;99.90;;;;;;4980929;28;20043;-82
2023/02/21 10:05:02;;;;;;;54.38;24.77;;;8.80;99.90;;;;;;4976178;28;20041;-82
2023/02/21 10:07:37;;;;;;;58.05;24.48;;;8.80;99.90;;;;;;4975518;28;20046;-81
2023/02/21 10:10:13;;;;;;;58.38;25.63;;;8.80;99.90;;;;;;4978962;28;20031;-82
2023/02/21 10:12:57;;;;;;;59.40;23.15;;;8.90;99.90;;;;;;4975738;28;20030;-86
2023/02/21 10:15:34;;;;;;;49.30;21.88;;;8.90;99.90;;;;;;4980079;28;20038;-81
2023/02/21 10:18:00;;;;;;;58.15;25.15;;;9.00;99.90;;;;;;4975362;28;20405;-81
2023/02/21 10:20:28;;;;;;;51.67;22.38;;;8.90;99.90;;;;;;4979249;28;20053;-83
2023/02/21 10:22:56;;;;;;;45.53;20.08;;;9.00;99.90;;;;;;4978783;28;20038;-81
2023/02/21 10:25:28;;;;;;;45.50;22.20;;;9.00;99.90;;;;;;4978776;28;20045;-85
2023/02/21 10:27:54;;;;;;;55.60;23.65;;;9.00;99.90;;;;;;4978055;28;20080;-81
2023/02/21 10:30:27;;;;;;;50.53;23.00;;;9.00;99.90;;;;;;4979801;28;20433;-81
2023/02/21 10:32:54;;;;;;;55.63;24.55;;;9.00;99.90;;;;;;4981011;28;20048;-81
2023/02/21 10:35:20;;;;;;;50.58;21.48;;;9.00;99.90;;;;;;4986078;28;20030;-83
2023/02/21 10:37:55;;;;;;;45.83;20.42;;;9.10;99.90;;;;;;4984708;28;20051;-85
2023/02/21 10:40:36;;;;;;;47.22;21.35;;;9.10;99.90;;;;;;4985383;28;20043;-83
2023/02/21 10:43:28;;;;;;;57.35;24.60;;;9.10;99.90;;;;;;4984749;28;20518;-83
2023/02/21 10:46:15;;;;;;;51.47;23.63;;;9.10;99.90;;;;;;4971611;28;20117;-82
2023/02/21 10:48:43;;;;;;;52.63;23.38;;;9.10;99.90;;;;;;4980261;28;20074;-82
2023/02/21 10:51:09;;;;;;;50.70;22.58;;;9.10;99.90;;;;;;4967797;28;20070;-82
2023/02/21 10:53:41;;;;;;;59.50;27.38;;;9.20;99.90;;;;;;4968618;28;20085;-83
2023/02/21 10:56:08;;;;;;;51.10;24.00;;;9.10;99.90;;;;;;4968627;28;20038;-83
2023/02/21 10:58:35;;;;;;;53.92;23.92;;;9.10;99.90;;;;;;4978236;28;20034;-81
2023/02/21 11:01:16;;;;;;;50.38;22.13;;;9.20;99.90;;;;;;4993454;28;20050;-84
2023/02/21 11:03:47;;;;;;;45.97;21.08;;;9.20;99.90;;;;;;4978853;28;20039;-83
2023/02/21 11:06:34;;;;;;;46.38;21.33;;;9.20;99.90;;;;;;4978788;28;20396;-83
2023/02/21 11:09:01;;;;;;;49.60;21.73;;;9.30;99.90;;;;;;4966663;28;20058;-83
2023/02/21 11:11:39;;;;;;;45.13;22.23;;;9.30;99.90;;;;;;4967554;28;22292;-82
2023/02/21 11:14:17;;;;;;;41.55;18.98;;;9.30;99.90;;;;;;4991453;28;20042;-83
2023/02/21 11:16:42;;;;;;;43.53;19.38;;;9.30;99.90;;;;;;4966961;28;20058;-86
2023/02/21 11:19:13;;;;;;;46.45;22.20;;;9.20;99.90;;;;;;4978074;28;20491;-84
2023/02/21 11:21:41;;;;;;;51.42;24.00;;;9.20;99.90;;;;;;4965517;28;20408;-81
2023/02/21 11:24:09;;;;;;;42.67;20.20;;;9.20;99.90;;;;;;4981113;28;20552;-82
2023/02/21 11:26:49;;;;;;;45.42;19.85;;;9.20;99.90;;;;;;4980769;28;20649;-83
2023/02/21 11:29:24;;;;;;;36.45;18.25;;;9.10;99.90;;;;;;4981026;28;20062;-84
2023/02/21 11:31:51;;;;;;;33.85;16.45;;;9.20;99.90;;;;;;4967676;28;20035;-82
2023/02/21 11:34:18;;;;;;;30.73;13.88;;;9.20;99.90;;;;;;4978086;28;20034;-83
2023/02/21 11:36:46;;;;;;;29.38;14.07;;;9.20;99.90;;;;;;4966578;28;20069;-83
2023/02/21 11:39:18;;;;;;;32.65;15.20;;;9.30;99.90;;;;;;4965381;28;20515;-81
2023/02/21 11:41:56;;;;;;;37.27;17.27;;;9.30;99.90;;;;;;4977731;28;20038;-84
2023/02/21 11:44:21;;;;;;;31.02;15.32;;;9.30;99.90;;;;;;4967510;28;20116;-81
2023/02/21 11:46:49;;;;;;;30.48;14.70;;;9.30;99.90;;;;;;4992007;28;20038;-82
2023/02/21 11:49:32;;;;;;;37.25;16.98;;;9.30;99.90;;;;;;4987084;28;20038;-84
2023/02/21 11:52:07;;;;;;;33.75;16.95;;;9.30;99.90;;;;;;4985528;28;20066;-84
2023/02/21 11:54:33;;;;;;;31.45;15.90;;;9.30;99.90;;;;;;4997209;28;20089;-81
2023/02/21 11:57:20;;;;;;;36.35;16.52;;;9.20;99.90;;;;;;4996839;28;20053;-82
2023/02/21 12:00:10;;;;;;;29.65;14.57;;;9.20;99.90;;;;;;4984988;28;20081;-83
2023/02/21 12:02:44;;;;;;;27.70;13.55;;;9.10;99.90;;;;;;4983252;28;20042;-79
2023/02/21 12:05:29;;;;;;;26.50;12.95;;;9.10;99.90;;;;;;4985217;28;20109;-83
2023/02/21 12:08:16;;;;;;;23.90;11.02;;;9.10;99.90;;;;;;4997329;28;20076;-79
2023/02/21 12:11:13;;;;;;;25.02;12.18;;;9.10;99.90;;;;;;4998543;28;20161;-80
2023/02/21 12:13:48;;;;;;;22.83;10.40;;;9.10;99.90;;;;;;4998447;28;20090;-78
2023/02/21 12:16:53;;;;;;;20.65;10.20;;;9.10;99.90;;;;;;5001053;28;20136;-80
2023/02/21 12:19:29;;;;;;;19.65;9.95;;;9.10;99.90;;;;;;4982143;28;20141;-81
2023/02/21 12:22:09;;;;;;;18.20;9.02;;;9.10;99.90;;;;;;5005007;28;20053;-84
2023/02/21 12:24:41;;;;;;;19.83;9.30;;;9.10;99.90;;;;;;4995500;28;20042;-81
2023/02/21 12:27:36;;;;;;;18.35;9.40;;;9.10;99.90;;;;;;5008836;28;20065;-82
2023/02/21 12:30:25;;;;;;;17.92;8.88;;;9.00;99.90;;;;;;4995020;28;20271;-83
2023/02/21 12:32:57;;;;;;;17.05;9.35;;;9.00;99.90;;;;;;4983089;28;20228;-82
2023/02/21 12:35:52;;;;;;;21.42;8.82;;;8.90;99.90;;;;;;4994782;28;20061;-82
2023/02/21 12:38:53;;;;;;;15.93;8.70;;;8.90;99.90;;;;;;4982390;28;20046;-81
2023/02/21 12:41:24;;;;;;;18.70;8.20;;;8.90;99.90;;;;;;4962470;28;20034;-84
2023/02/21 12:44:03;;;;;;;16.77;7.50;;;8.90;99.90;;;;;;4981971;28;20097;-84
2023/02/21 12:46:56;;;;;;;15.95;7.25;;;9.00;99.90;;;;;;4994109;28;20061;-83
2023/02/21 12:49:29;;;;;;;16.13;7.30;;;9.00;99.90;;;;;;4985733;28;20046;-84
2023/02/21 12:52:05;;;;;;;15.63;7.43;;;9.00;99.90;;;;;;4979580;28;20046;-83
2023/02/21 12:54:42;;;;;;;18.08;8.52;;;9.00;99.90;;;;;;4981064;28;20097;-82
2023/02/21 12:57:14;;;;;;;16.05;7.82;;;9.10;99.90;;;;;;4979813;28;20101;-83
2023/02/21 13:00:16;;;;;;;15.95;7.80;;;9.10;99.90;;;;;;4963114;28;20034;-83
2023/02/21 13:03:10;;;;;;;15.35;7.40;;;9.10;99.90;;;;;;4979649;28;20042;-83
2023/02/21 13:05:41;;;;;;;16.52;7.68;;;9.20;99.90;;;;;;4962378;28;20157;-82
2023/02/21 13:08:28;;;;;;;17.88;8.18;;;9.20;99.90;;;;;;4994372;28;20073;-82
2023/02/21 13:11:08;;;;;;;19.42;9.57;;;9.20;99.90;;;;;;4961585;28;20042;-82
2023/02/21 13:13:34;;;;;;;20.17;9.48;;;9.20;99.90;;;;;;4995639;28;20117;-83
2023/02/21 13:16:11;;;;;;;17.95;8.20;;;9.20;99.90;;;;;;4994243;28;20726;-83
2023/02/21 13:18:42;;;;;;;22.15;10.25;;;9.20;99.90;;;;;;4962079;28;20054;-82
2023/02/21 13:21:15;;;;;;;23.95;12.00;;;9.10;99.90;;;;;;4980173;28;20051;-81
2023/02/21 13:24:30;;;;;;;23.38;11.38;;;9.10;99.90;;;;;;4981057;28;20445;-82
2023/02/21 13:27:24;;;;;;;28.20;13.27;;;9.10;99.90;;;;;;4979715;28;20046;-85
2023/02/21 13:29:50;;;;;;;24.02;11.45;;;9.10;99.90;;;;;;4963449;28;20769;-80
2023/02/21 13:32:21;;;;;;;21.88;10.55;;;9.10;99.90;;;;;;4962205;28;20035;-82
2023/02/21 13:34:54;;;;;;;22.48;11.27;;;9.20;99.90;;;;;;4994679;28;20065;-84
2023/02/21 13:37:27;;;;;;;20.70;9.95;;;9.20;99.90;;;;;;4994776;28;20046;-83
2023/02/21 13:40:16;;;;;;;23.63;11.30;;;9.20;99.90;;;;;;4962830;28;20938;-81
2023/02/21 13:42:42;;;;;;;20.88;9.63;;;9.30;99.90;;;;;;4963082;28;21104;-81
2023/02/21 13:45:20;;;;;;;19.15;9.75;;;9.20;99.90;;;;;;4995165;28;20045;-83
2023/02/21 13:47:52;;;;;;;18.90;9.13;;;9.20;99.90;;;;;;4962674;28;20038;-82
2023/02/21 13:50:33;;;;;;;19.27;9.07;;;9.20;99.90;;;;;;4979425;28;20058;-82
2023/02/21 13:53:15;;;;;;;22.83;9.77;;;9.20;99.90;;;;;;4966717;28;20488;-81
2023/02/21 13:56:06;;;;;;;19.67;9.40;;;9.20;99.90;;;;;;4967288;28;20140;-80
2023/02/21 13:58:32;;;;;;;20.15;9.13;;;9.20;99.90;;;;;;4983095;28;20047;-82
2023/02/21 14:01:15;;;;;;;17.50;9.07;;;9.20;99.90;;;;;;4969995;28;20042;-81
2023/02/21 14:03:41;;;;;;;;;;;9.20;99.90;;;;;;4982576;28;20085;-81
2023/02/21 14:06:10;;;;;;;18.38;8.55;;;9.10;99.90;;;;;;4967189;28;20045;-83
2023/02/21 14:08:41;;;;;;;19.67;10.32;;;9.10;99.90;;;;;;4984602;28;20053;-83
2023/02/21 14:11:09;;;;;;;20.77;9.65;;;9.20;99.90;;;;;;4982607;28;20366;-83
2023/02/21 14:13:51;;;;;;;16.30;8.23;;;9.10;99.90;;;;;;4970071;28;20046;-83
2023/02/21 14:16:23;;;;;;;15.68;8.05;;;9.20;99.90;;;;;;4971248;28;20125;-81
2023/02/21 14:19:05;;;;;;;17.80;8.80;;;9.20;99.90;;;;;;4973890;28;20045;-83
2023/02/21 14:21:47;;;;;;;20.92;10.27;;;9.30;99.90;;;;;;4973717;28;21066;-83
2023/02/21 14:24:18;;;;;;;26.45;12.00;;;9.30;99.90;;;;;;4973253;28;20045;-81
2023/02/21 14:27:00;;;;;;;24.00;10.88;;;9.30;99.90;;;;;;4987951;28;20077;-82
2023/02/21 14:30:04;;;;;;;27.13;12.23;;;9.30;99.90;;;;;;4975322;28;20050;-81
2023/02/21 14:32:49;;;;;;;21.52;9.77;;;9.30;99.90;;;;;;4974505;28;20034;-80
2023/02/21 14:35:42;;;;;;;28.38;12.82;;;9.30;99.90;;;;;;4974603;28;20049;-85
2023/02/21 14:38:26;;;;;;;25.80;12.68;;;9.40;99.90;;;;;;4989444;28;20054;-85
2023/02/21 14:41:17;;;;;;;24.98;10.57;;;9.30;99.90;;;;;;4987434;28;20041;-83
2023/02/21 14:44:20;;;;;;;25.73;12.45;;;9.40;99.90;;;;;;4986217;28;20141;-80
2023/02/21 14:46:54;;;;;;;27.48;12.63;;;9.40;99.90;;;;;;4987270;28;20054;-81
2023/02/21 14:49:50;;;;;;;25.38;12.15;;;9.40;99.90;;;;;;4984805;28;20060;-82
2023/02/21 14:52:37;;;;;;;26.40;13.52;;;9.40;99.90;;;;;;4998662;28;20085;-84
2023/02/21 14:55:18;;;;;;;28.02;12.25;;;9.50;99.90;;;;;;4986820;28;20037;-85
2023/02/21 14:58:10;;;;;;;26.08;13.70;;;9.50;99.90;;;;;;4999002;28;20049;-82
2023/02/21 15:00:59;;;;;;;26.60;13.70;;;9.50;99.90;;;;;;4987423;28;20038;-83
2023/02/21 15:03:32;;;;;;;23.90;12.07;;;9.50;99.90;;;;;;5001006;28;20038;-81
2023/02/21 15:06:11;;;;;;;26.48;12.55;;;9.50;99.90;;;;;;4998019;28;20499;-83
2023/02/21 15:08:45;;;;;;;26.02;12.38;;;9.50;99.90;;;;;;4997918;28;20065;-80
2023/02/21 15:11:32;;;;;;;23.33;11.68;;;9.50;99.90;;;;;;5002761;28;20048;-83
2023/02/21 15:14:21;;;;;;;22.27;11.30;;;9.60;99.90;;;;;;4989144;28;20026;-82
2023/02/21 15:16:53;;;;;;;21.17;10.65;;;9.60;99.90;;;;;;4986183;28;20511;-83
2023/02/21 15:19:24;;;;;;;21.23;10.80;;;9.60;99.90;;;;;;5003655;28;20464;-83